Outrageous — WDE7310 — position and weather

sailwx.info

Track history (hours):
 
Tides and Currents Weather Stations Pressure Air Temp Water Temp Dewpoint Dewpoint Depression Visibility Wind Speed Wind Dir Waves Ship Positions

Outrageous

Owner: GT Gator Inc Corp America, Dover, DE. More information available from US FCC via Universal Licensing System and Coast Guard Vessel Documentation Center.

Last reported at 2017-Sep-16 19:41 UTC. Time now 2017-Sep-19 17:17 UTC.
Position N 40°53' W 073°44'.

; draft 3.4 m.

Type: Tug. MMSI: 366381650.

Date/timePositionNaut miles runAvg speedWind from/ knotsBaromVisibWave heightAir tempDewpointWater temp
2017-Sep-16 19:41N 40°53' W 073°44'2 7.4
2017-Sep-16 19:23N 40°51' W 073°45'3 7.5
2017-Sep-16 18:57N 40°48' W 073°47'4 8.0
2017-Sep-16 18:30N 40°48' W 073°52'4 6.9
2017-Sep-16 17:59N 40°47' W 073°56'3 6.6
2017-Sep-16 17:30N 40°44' W 073°58'3 5.2
2017-Sep-16 17:00N 40°42' W 074°00'3 5.2
2017-Sep-16 16:30N 40°40' W 074°03'1 2.8
2017-Sep-16 16:00N 40°41' W 074°05'0 0.0
2017-Sep-16 15:30N 40°41' W 074°05'0 0.0
2017-Sep-16 15:00N 40°41' W 074°05'0 0.0
2017-Sep-16 14:30N 40°41' W 074°05'0 0.0
2017-Sep-16 14:00N 40°41' W 074°05'0 0.2
2017-Sep-16 13:30N 40°41' W 074°05'1 2.1
2017-Sep-16 13:00N 40°40' W 074°04'3 5.1
2017-Sep-16 12:30N 40°41' W 074°00'3 6.5
2017-Sep-16 12:00N 40°44' W 073°58'3 6.4
2017-Sep-16 11:29N 40°47' W 073°56'1 2.8
2017-Sep-16 11:00N 40°48' W 073°54'2 4.2
2017-Sep-16 10:30N 40°48' W 073°52'2 3.3
2017-Sep-16 10:00N 40°48' W 073°49'2 3.2
2017-Sep-16 09:22N 40°49' W 073°47'38 5.1
2017-Sep-16 02:00N 41°08' W 073°04'  
Track history (hours):
 
Tides and Currents Weather Stations Pressure Air Temp Water Temp Dewpoint Dewpoint Depression Visibility Wind Speed Wind Dir Waves Ship Positions

Outrageous

Owner: GT Gator Inc Corp America, Dover, DE. More information available from US FCC via Universal Licensing System and Coast Guard Vessel Documentation Center.

Last reported at 2017-Sep-16 19:41 UTC. Time now 2017-Sep-19 17:17 UTC.
Position N 40°53' W 073°44'.

; draft 3.4 m.

Type: Tug. MMSI: 366381650.

Date/timePositionNaut miles runAvg speedWind from/ knotsBaromVisibWave heightAir tempDewpointWater temp
2017-Sep-16 19:41N 40°53' W 073°44'2 7.4
2017-Sep-16 19:23N 40°51' W 073°45'3 7.5
2017-Sep-16 18:57N 40°48' W 073°47'4 8.0
2017-Sep-16 18:30N 40°48' W 073°52'4 6.9
2017-Sep-16 17:59N 40°47' W 073°56'3 6.6
2017-Sep-16 17:30N 40°44' W 073°58'3 5.2
2017-Sep-16 17:00N 40°42' W 074°00'3 5.2
2017-Sep-16 16:30N 40°40' W 074°03'1 2.8
2017-Sep-16 16:00N 40°41' W 074°05'0 0.0
2017-Sep-16 15:30N 40°41' W 074°05'0 0.0
2017-Sep-16 15:00N 40°41' W 074°05'0 0.0
2017-Sep-16 14:30N 40°41' W 074°05'0 0.0
2017-Sep-16 14:00N 40°41' W 074°05'0 0.2
2017-Sep-16 13:30N 40°41' W 074°05'1 2.1
2017-Sep-16 13:00N 40°40' W 074°04'3 5.1
2017-Sep-16 12:30N 40°41' W 074°00'3 6.5
2017-Sep-16 12:00N 40°44' W 073°58'3 6.4
2017-Sep-16 11:29N 40°47' W 073°56'1 2.8
2017-Sep-16 11:00N 40°48' W 073°54'2 4.2
2017-Sep-16 10:30N 40°48' W 073°52'2 3.3
2017-Sep-16 10:00N 40°48' W 073°49'2 3.2
2017-Sep-16 09:22N 40°49' W 073°47'38 5.1
2017-Sep-16 02:00N 41°08' W 073°04'  

Dump ship's entire track history